createdAt,value
2023-01-19T00:01:42.182Z,5.33
2023-01-19T00:04:10.243Z,5.29
2023-01-19T00:06:38.106Z,5.48
2023-01-19T00:09:06.023Z,5.34
2023-01-19T00:11:33.982Z,5.29
2023-01-19T00:14:02.142Z,5.32
2023-01-19T00:16:30.120Z,5.42
2023-01-19T00:18:58.089Z,5.36
2023-01-19T00:21:26.075Z,5.34
2023-01-19T00:23:54.036Z,5.34
2023-01-19T00:26:22.526Z,5.29
2023-01-19T00:28:50.922Z,5.28
2023-01-19T00:31:20.985Z,5.25
2023-01-19T00:33:50.445Z,5.32
2023-01-19T00:36:19.359Z,5.39
2023-01-19T00:38:47.447Z,5.38
2023-01-19T00:41:15.491Z,5.31
2023-01-19T00:43:43.408Z,5.34
2023-01-19T00:46:11.268Z,5.32
2023-01-19T00:48:39.221Z,5.23
2023-01-19T00:51:07.141Z,5.27
2023-01-19T00:53:35.103Z,5.26
2023-01-19T00:56:02.966Z,5.25
2023-01-19T00:58:30.822Z,5.30
2023-01-19T01:01:03.912Z,5.25
2023-01-19T01:03:32.404Z,5.27
2023-01-19T01:06:00.272Z,5.14
2023-01-19T01:08:28.088Z,5.09
2023-01-19T01:10:56.772Z,5.13
2023-01-19T01:13:27.252Z,5.18
2023-01-19T01:15:57.089Z,5.10
2023-01-19T01:18:26.463Z,5.12
2023-01-19T01:21:05.032Z,5.07
2023-01-19T01:23:33.658Z,5.25
2023-01-19T01:26:01.875Z,5.16
2023-01-19T01:28:29.810Z,5.19
2023-01-19T01:30:57.615Z,5.14
2023-01-19T01:33:40.670Z,5.17
2023-01-19T01:36:10.770Z,5.19
2023-01-19T01:38:40.631Z,5.23
2023-01-19T01:41:09.344Z,5.32
2023-01-19T01:43:50.655Z,5.36
2023-01-19T01:46:20.149Z,5.37
2023-01-19T01:49:16.554Z,5.25
2023-01-19T01:51:48.372Z,5.13
2023-01-19T01:54:31.055Z,5.20
2023-01-19T01:57:05.176Z,5.27
2023-01-19T01:59:39.442Z,5.35
2023-01-19T02:02:30.589Z,5.11
2023-01-19T02:05:04.575Z,4.95
2023-01-19T02:08:14.107Z,4.97
2023-01-19T02:11:01.936Z,4.90
2023-01-19T02:13:31.465Z,4.84
2023-01-19T02:16:03.503Z,4.76
2023-01-19T02:18:32.520Z,4.79
2023-01-19T02:21:04.895Z,4.99
2023-01-19T02:23:48.686Z,4.98
2023-01-19T02:26:39.236Z,5.02
2023-01-19T02:29:16.729Z,5.12
2023-01-19T02:31:45.560Z,5.04
2023-01-19T02:34:17.246Z,4.89
2023-01-19T02:36:56.521Z,4.75
2023-01-19T02:39:33.794Z,4.74
2023-01-19T02:42:06.436Z,4.77
2023-01-19T02:44:36.788Z,4.72
2023-01-19T02:47:05.961Z,4.73
2023-01-19T02:49:33.908Z,4.74
2023-01-19T02:52:01.978Z,4.78
2023-01-19T02:55:04.045Z,4.76
2023-01-19T02:57:39.728Z,4.88
2023-01-19T03:00:13.294Z,4.84
2023-01-19T03:03:09.362Z,4.84
2023-01-19T03:05:50.127Z,4.88
2023-01-19T03:08:34.454Z,4.83
2023-01-19T03:11:09.166Z,4.85
2023-01-19T03:13:52.732Z,5.06
2023-01-19T03:16:22.570Z,5.03
2023-01-19T03:19:09.105Z,5.19
2023-01-19T03:21:40.063Z,5.13
2023-01-19T03:24:11.869Z,5.13
2023-01-19T03:26:45.164Z,5.10
2023-01-19T03:29:14.284Z,4.98
2023-01-19T03:31:45.665Z,5.01
2023-01-19T03:34:16.521Z,5.22
2023-01-19T03:36:49.616Z,5.20
2023-01-19T03:39:25.120Z,5.08
2023-01-19T03:41:59.645Z,5.21
2023-01-19T03:44:29.815Z,5.16
2023-01-19T03:46:59.609Z,5.22
2023-01-19T03:49:30.901Z,5.34
2023-01-19T03:51:59.507Z,5.26
2023-01-19T03:54:28.502Z,5.18
2023-01-19T03:56:56.445Z,5.17
2023-01-19T03:59:24.306Z,5.23
2023-01-19T04:01:52.649Z,5.32
2023-01-19T04:04:20.497Z,5.27
2023-01-19T04:06:48.398Z,5.25
2023-01-19T04:09:17.544Z,5.21
2023-01-19T04:11:47.340Z,5.24
2023-01-19T04:14:15.175Z,5.28
2023-01-19T04:16:43.056Z,5.16
2023-01-19T04:19:11.437Z,5.19
2023-01-19T04:21:39.654Z,5.21
2023-01-19T04:24:08.014Z,5.22
2023-01-19T04:26:35.944Z,5.15
2023-01-19T04:29:04.614Z,5.29
2023-01-19T04:31:33.112Z,5.17
2023-01-19T04:34:01.057Z,5.17
2023-01-19T04:36:28.875Z,5.22
2023-01-19T04:38:56.683Z,5.15
2023-01-19T04:41:24.596Z,5.18
2023-01-19T04:43:52.484Z,5.16
2023-01-19T04:46:20.314Z,5.10
2023-01-19T04:48:48.260Z,5.04
2023-01-19T04:51:16.123Z,5.09
2023-01-19T04:53:44.035Z,5.09
2023-01-19T04:56:12.775Z,5.04
2023-01-19T04:58:41.033Z,5.02
2023-01-19T05:01:09.961Z,5.12
2023-01-19T05:03:37.965Z,5.08
2023-01-19T05:06:06.715Z,5.12
2023-01-19T05:08:34.617Z,5.11
2023-01-19T05:11:02.595Z,5.08
2023-01-19T05:13:30.716Z,5.18
2023-01-19T05:15:58.719Z,5.30
2023-01-19T05:18:26.660Z,5.23
2023-01-19T05:20:54.534Z,5.16
2023-01-19T05:23:22.454Z,5.18
2023-01-19T05:25:50.605Z,5.13
2023-01-19T05:28:19.334Z,5.01
2023-01-19T05:30:47.239Z,5.04
2023-01-19T05:33:15.273Z,5.10
2023-01-19T05:35:43.148Z,5.17
2023-01-19T05:38:10.953Z,5.25
2023-01-19T05:40:38.745Z,5.22
2023-01-19T05:43:06.713Z,5.17
2023-01-19T05:45:34.938Z,5.11
2023-01-19T05:48:02.902Z,5.20
2023-01-19T05:50:30.994Z,5.15
2023-01-19T05:53:00.423Z,5.13
2023-01-19T05:55:29.548Z,5.25
2023-01-19T05:57:57.516Z,5.31
2023-01-19T06:00:27.811Z,5.30
2023-01-19T06:02:55.800Z,5.28
2023-01-19T06:05:23.778Z,5.27
2023-01-19T06:07:51.653Z,5.28
2023-01-19T06:10:19.774Z,5.22
2023-01-19T06:12:47.654Z,5.29
2023-01-19T06:15:15.623Z,5.37
2023-01-19T06:17:43.502Z,5.29
2023-01-19T06:20:14.128Z,5.28
2023-01-19T06:22:42.108Z,5.22
2023-01-19T06:25:10.641Z,5.30
2023-01-19T06:27:40.063Z,5.29
2023-01-19T06:30:08.605Z,5.25
2023-01-19T06:32:36.584Z,5.26
2023-01-19T06:35:05.693Z,5.36
2023-01-19T06:37:34.825Z,5.34
2023-01-19T06:40:03.237Z,5.26
2023-01-19T06:42:31.295Z,5.30
2023-01-19T06:44:59.484Z,5.38
2023-01-19T06:47:27.394Z,5.40
2023-01-19T06:49:55.365Z,5.44
2023-01-19T06:52:23.318Z,5.39
2023-01-19T06:54:51.325Z,5.42
2023-01-19T06:57:19.239Z,5.45
2023-01-19T06:59:47.245Z,5.46
2023-01-19T07:02:26.461Z,5.49
2023-01-19T07:04:56.990Z,5.55
2023-01-19T07:07:25.674Z,5.40
2023-01-19T07:09:54.370Z,5.31
2023-01-19T07:12:23.168Z,5.32
2023-01-19T07:14:51.903Z,5.21
2023-01-19T07:17:20.451Z,5.04
2023-01-19T07:19:48.467Z,4.99
2023-01-19T07:22:16.443Z,5.12
2023-01-19T07:24:44.547Z,5.15
2023-01-19T07:27:12.879Z,5.10
2023-01-19T07:29:40.695Z,5.16
2023-01-19T07:32:08.913Z,5.23
2023-01-19T07:34:37.223Z,5.33
2023-01-19T07:37:05.127Z,5.36
2023-01-19T07:39:33.018Z,5.30
2023-01-19T07:42:01.385Z,5.28
2023-01-19T07:44:29.965Z,5.34
2023-01-19T07:46:57.930Z,5.38
2023-01-19T07:49:25.876Z,5.50
2023-01-19T07:51:56.475Z,5.49
2023-01-19T07:54:24.477Z,5.51
2023-01-19T07:56:55.524Z,5.48
2023-01-19T07:59:23.739Z,5.53
2023-01-19T08:01:53.626Z,5.52
2023-01-19T08:04:22.059Z,5.57
2023-01-19T08:06:50.107Z,5.74
2023-01-19T08:09:18.373Z,5.86
2023-01-19T08:11:46.673Z,5.39
2023-01-19T08:14:14.603Z,5.22
2023-01-19T08:16:42.455Z,4.96
2023-01-19T08:19:10.414Z,4.73
2023-01-19T08:21:39.188Z,4.60
2023-01-19T08:24:07.526Z,4.54
2023-01-19T08:26:35.986Z,4.70
2023-01-19T08:29:06.098Z,4.84
2023-01-19T08:31:34.054Z,4.76
2023-01-19T08:34:02.540Z,4.68
2023-01-19T08:36:30.551Z,4.40
2023-01-19T08:38:58.488Z,4.21
2023-01-19T08:41:27.077Z,4.11
2023-01-19T08:43:54.944Z,4.07
2023-01-19T08:46:22.887Z,3.86
2023-01-19T08:48:50.884Z,3.79
2023-01-19T08:51:19.555Z,3.93
2023-01-19T08:53:47.723Z,3.93
2023-01-19T08:56:15.731Z,3.77
2023-01-19T08:58:45.755Z,3.69
2023-01-19T09:01:17.080Z,3.68
2023-01-19T09:03:45.081Z,3.62
2023-01-19T09:06:17.084Z,3.53
2023-01-19T09:08:45.404Z,3.58
2023-01-19T09:11:15.566Z,3.61
2023-01-19T09:13:43.855Z,3.55
2023-01-19T09:16:13.526Z,3.58
2023-01-19T09:18:41.773Z,3.63
2023-01-19T09:21:09.700Z,3.70
2023-01-19T09:23:38.051Z,3.71
2023-01-19T09:26:07.126Z,3.63
2023-01-19T09:28:35.089Z,3.62
2023-01-19T09:31:07.823Z,3.63
2023-01-19T09:33:35.986Z,3.63
2023-01-19T09:36:04.909Z,3.65
2023-01-19T09:38:33.185Z,3.65
2023-01-19T09:41:01.826Z,3.64
2023-01-19T09:43:38.975Z,3.83
2023-01-19T09:46:41.639Z,3.85
2023-01-19T09:49:39.514Z,3.93
2023-01-19T09:52:12.516Z,4.02
2023-01-19T09:54:57.507Z,4.06
2023-01-19T09:57:30.504Z,4.17
2023-01-19T09:59:59.920Z,4.00
2023-01-19T10:02:40.817Z,3.98
2023-01-19T10:05:25.601Z,3.97
2023-01-19T10:07:56.154Z,3.92
2023-01-19T10:10:27.877Z,3.74
2023-01-19T10:13:03.522Z,3.78
2023-01-19T10:16:00.074Z,3.74
2023-01-19T10:18:35.925Z,3.68
2023-01-19T10:21:22.164Z,3.58
2023-01-19T10:24:06.707Z,3.66
2023-01-19T10:26:39.533Z,3.59
2023-01-19T10:29:15.017Z,3.39
2023-01-19T10:31:46.700Z,3.53
2023-01-19T10:34:21.581Z,3.58
2023-01-19T10:36:59.398Z,3.40
2023-01-19T10:39:27.354Z,3.21
2023-01-19T10:41:55.188Z,3.27
2023-01-19T10:44:28.969Z,3.25
2023-01-19T10:46:59.324Z,3.19
2023-01-19T10:49:30.173Z,3.08
2023-01-19T10:52:00.784Z,3.09
2023-01-19T10:54:32.403Z,3.11
2023-01-19T10:57:07.579Z,3.03
2023-01-19T10:59:38.971Z,3.11
2023-01-19T11:02:30.737Z,3.10
2023-01-19T11:05:21.433Z,3.17
2023-01-19T11:07:49.278Z,3.19
2023-01-19T11:10:23.383Z,3.22
2023-01-19T11:13:12.950Z,3.28
2023-01-19T11:15:44.887Z,3.35
2023-01-19T11:18:23.651Z,3.38
2023-01-19T11:20:55.324Z,3.36
2023-01-19T11:23:33.820Z,3.26
2023-01-19T11:26:05.598Z,3.21
2023-01-19T11:28:37.589Z,3.31
2023-01-19T11:31:11.400Z,3.28
2023-01-19T11:33:53.385Z,3.32
2023-01-19T11:36:28.133Z,3.35
2023-01-19T11:39:23.974Z,3.41
2023-01-19T11:41:57.263Z,3.42
2023-01-19T11:44:33.194Z,3.52
2023-01-19T11:47:06.100Z,3.60
2023-01-19T11:49:51.304Z,3.69
2023-01-19T11:52:35.994Z,3.84
2023-01-19T11:55:17.419Z,3.93
2023-01-19T11:57:52.389Z,3.79
2023-01-19T12:00:35.782Z,3.80
2023-01-19T12:03:30.774Z,3.92
2023-01-19T12:06:04.425Z,3.88
2023-01-19T12:08:40.086Z,4.00
2023-01-19T12:11:12.705Z,3.85
2023-01-19T12:13:44.312Z,3.84
2023-01-19T12:16:21.755Z,3.80
2023-01-19T12:19:14.915Z,3.76
2023-01-19T12:21:44.615Z,3.85
2023-01-19T12:24:18.830Z,4.04
2023-01-19T12:26:57.348Z,4.06
2023-01-19T12:29:31.464Z,4.12
2023-01-19T12:32:14.555Z,4.21
2023-01-19T12:34:50.093Z,4.22
2023-01-19T12:37:43.503Z,4.36
2023-01-19T12:40:26.963Z,4.55
2023-01-19T12:43:01.867Z,4.48
2023-01-19T12:45:35.184Z,4.34
2023-01-19T12:48:05.013Z,4.25
2023-01-19T12:50:40.404Z,4.32
2023-01-19T12:53:19.205Z,4.40
2023-01-19T12:56:00.209Z,4.37
2023-01-19T12:58:28.241Z,4.37
2023-01-19T13:01:19.228Z,4.53
2023-01-19T13:04:01.777Z,4.63
2023-01-19T13:06:50.011Z,4.76
2023-01-19T13:09:32.179Z,4.79
2023-01-19T13:12:15.477Z,4.90
2023-01-19T13:14:44.115Z,4.89
2023-01-19T13:17:33.709Z,4.99
2023-01-19T13:20:23.275Z,4.90
2023-01-19T13:22:52.212Z,4.90
2023-01-19T13:25:35.829Z,4.88
2023-01-19T13:28:10.695Z,4.92
2023-01-19T13:30:51.697Z,4.87
2023-01-19T13:33:23.336Z,4.98
2023-01-19T13:35:58.998Z,5.02
2023-01-19T13:38:28.262Z,5.06
2023-01-19T13:40:59.020Z,5.01
2023-01-19T13:43:34.006Z,5.08
2023-01-19T13:46:04.315Z,5.04
2023-01-19T13:48:33.019Z,5.30
2023-01-19T13:51:07.281Z,5.38
2023-01-19T13:53:35.645Z,5.37
2023-01-19T13:56:17.474Z,5.53
2023-01-19T13:58:58.764Z,5.48
2023-01-19T14:01:29.499Z,5.56
2023-01-19T14:03:58.956Z,5.68
2023-01-19T14:06:34.974Z,5.71
2023-01-19T14:09:07.749Z,5.89
2023-01-19T14:11:35.943Z,5.85
2023-01-19T14:14:03.940Z,5.88
2023-01-19T14:16:31.968Z,5.78
2023-01-19T14:19:02.518Z,5.95
2023-01-19T14:21:41.191Z,5.85
2023-01-19T14:24:17.215Z,5.90
2023-01-19T14:26:48.545Z,6.01
2023-01-19T14:29:16.525Z,6.04
2023-01-19T14:31:53.864Z,5.99
2023-01-19T14:35:14.021Z,5.82
2023-01-19T14:37:50.624Z,5.80
2023-01-19T14:40:21.603Z,5.80
2023-01-19T14:42:52.659Z,5.86
2023-01-19T14:45:34.179Z,5.74
2023-01-19T14:48:21.253Z,5.64
2023-01-19T14:51:02.924Z,5.56
2023-01-19T14:53:51.972Z,5.50
2023-01-19T14:56:31.707Z,5.48
2023-01-19T14:59:01.838Z,5.54
2023-01-19T15:01:31.296Z,5.51
2023-01-19T15:03:59.762Z,5.50
2023-01-19T15:06:28.210Z,5.50
2023-01-19T15:08:56.274Z,5.47
2023-01-19T15:11:31.514Z,5.41
2023-01-19T15:14:00.081Z,5.43
2023-01-19T15:16:30.466Z,5.45
2023-01-19T15:18:58.413Z,5.44
2023-01-19T15:21:26.996Z,5.47
2023-01-19T15:23:55.493Z,5.38
2023-01-19T15:26:26.482Z,5.47
2023-01-19T15:28:56.337Z,5.49
2023-01-19T15:31:26.444Z,5.45
2023-01-19T15:33:54.596Z,5.50
2023-01-19T15:36:24.522Z,5.40
2023-01-19T15:38:52.408Z,5.36
2023-01-19T15:41:28.032Z,5.25
2023-01-19T15:43:56.703Z,5.25
2023-01-19T15:46:26.033Z,5.16
2023-01-19T15:48:54.597Z,5.13
2023-01-19T15:51:27.948Z,5.10
2023-01-19T15:53:56.182Z,4.97
2023-01-19T15:56:28.994Z,4.89
2023-01-19T15:58:58.431Z,4.93
2023-01-19T16:01:32.476Z,4.89
2023-01-19T16:04:02.775Z,4.90
2023-01-19T16:06:31.801Z,4.70
2023-01-19T16:09:01.766Z,4.67
2023-01-19T16:11:35.293Z,4.64
2023-01-19T16:14:03.310Z,4.63
2023-01-19T16:16:31.359Z,4.56
2023-01-19T16:18:59.327Z,4.57
2023-01-19T16:21:27.384Z,4.54
2023-01-19T16:23:55.557Z,4.48
2023-01-19T16:26:25.352Z,4.53
2023-01-19T16:28:56.638Z,4.62
2023-01-19T16:31:24.766Z,4.62
2023-01-19T16:33:52.724Z,4.59
2023-01-19T16:36:28.144Z,4.56
2023-01-19T16:39:19.850Z,4.48
2023-01-19T16:41:47.794Z,4.51
2023-01-19T16:44:17.154Z,4.47
2023-01-19T16:46:46.591Z,4.47
2023-01-19T16:49:23.508Z,4.34
2023-01-19T16:51:53.714Z,4.41
2023-01-19T16:54:23.794Z,4.36
2023-01-19T16:56:52.416Z,4.50
2023-01-19T16:59:22.360Z,4.56
2023-01-19T17:01:52.272Z,4.58
2023-01-19T17:04:21.824Z,4.33
2023-01-19T17:06:52.813Z,4.36
2023-01-19T17:09:20.865Z,4.24
2023-01-19T17:11:49.001Z,4.24
2023-01-19T17:14:20.701Z,4.45
2023-01-19T17:16:49.492Z,4.46
2023-01-19T17:19:19.479Z,4.36
2023-01-19T17:21:49.338Z,4.39
2023-01-19T17:24:18.131Z,4.44
2023-01-19T17:26:48.791Z,4.41
2023-01-19T17:29:17.167Z,4.35
2023-01-19T17:31:46.054Z,4.37
2023-01-19T17:34:14.043Z,4.44
2023-01-19T17:36:41.998Z,4.51
2023-01-19T17:39:15.146Z,4.45
2023-01-19T17:41:42.914Z,4.42
2023-01-19T17:44:10.934Z,4.28
2023-01-19T17:46:39.212Z,4.35
2023-01-19T17:49:08.355Z,4.34
2023-01-19T17:51:36.704Z,4.38
2023-01-19T17:54:05.031Z,4.51
2023-01-19T17:56:36.975Z,4.35
2023-01-19T17:59:07.962Z,4.42
2023-01-19T18:01:40.126Z,4.42
2023-01-19T18:04:09.273Z,4.36
2023-01-19T18:06:39.061Z,4.53
2023-01-19T18:09:07.635Z,4.57
2023-01-19T18:11:36.193Z,4.52
2023-01-19T18:14:05.701Z,4.58
2023-01-19T18:16:33.774Z,4.69
2023-01-19T18:19:01.924Z,4.80
2023-01-19T18:21:30.672Z,4.78
2023-01-19T18:24:05.029Z,4.82
2023-01-19T18:26:34.864Z,4.83
2023-01-19T18:29:02.798Z,4.84
2023-01-19T18:31:31.018Z,4.88
2023-01-19T18:33:59.712Z,4.99
2023-01-19T18:36:27.767Z,5.01
2023-01-19T18:38:55.913Z,5.01
2023-01-19T18:41:23.893Z,5.08
2023-01-19T18:43:53.734Z,5.10
2023-01-19T18:46:21.802Z,5.08
2023-01-19T18:48:50.103Z,5.07
2023-01-19T18:51:18.505Z,5.16
2023-01-19T18:53:46.427Z,5.09
2023-01-19T18:56:15.952Z,4.99
2023-01-19T18:58:45.043Z,4.88
2023-01-19T19:01:21.245Z,4.86
2023-01-19T19:03:50.094Z,4.76
2023-01-19T19:06:21.140Z,4.66
2023-01-19T19:08:54.376Z,4.61
2023-01-19T19:11:24.680Z,4.62
2023-01-19T19:14:01.395Z,4.55
2023-01-19T19:16:32.197Z,4.50
2023-01-19T19:19:02.121Z,4.45
2023-01-19T19:21:30.072Z,4.56
2023-01-19T19:23:58.846Z,4.43
2023-01-19T19:26:28.571Z,4.43
2023-01-19T19:29:12.355Z,4.45
2023-01-19T19:31:40.954Z,4.38
2023-01-19T19:34:12.571Z,4.39
2023-01-19T19:36:40.856Z,4.44
2023-01-19T19:39:08.881Z,4.39
2023-01-19T19:41:39.191Z,4.34
2023-01-19T19:44:07.153Z,4.29
2023-01-19T19:46:35.247Z,4.39
2023-01-19T19:49:05.303Z,4.23
2023-01-19T19:51:34.292Z,4.17
2023-01-19T19:54:02.525Z,4.11
2023-01-19T19:56:34.236Z,4.10
2023-01-19T19:59:02.218Z,4.05
2023-01-19T20:01:33.483Z,3.98
2023-01-19T20:04:09.977Z,4.01
2023-01-19T20:06:44.946Z,3.85
2023-01-19T20:09:14.379Z,3.79
2023-01-19T20:11:44.480Z,3.76
2023-01-19T20:14:13.827Z,3.71
2023-01-19T20:16:42.959Z,3.69
2023-01-19T20:19:11.255Z,3.66
2023-01-19T20:21:44.435Z,3.77
2023-01-19T20:24:16.380Z,3.69
2023-01-19T20:26:47.206Z,3.73
2023-01-19T20:29:15.517Z,3.73
2023-01-19T20:31:48.004Z,3.70
2023-01-19T20:34:17.985Z,3.71
2023-01-19T20:36:49.853Z,3.77
2023-01-19T20:39:19.056Z,3.72
2023-01-19T20:41:49.509Z,3.79
2023-01-19T20:44:22.438Z,3.80
2023-01-19T20:46:51.735Z,3.74
2023-01-19T20:49:19.806Z,3.71
2023-01-19T20:51:48.486Z,3.73
2023-01-19T20:54:18.804Z,3.69
2023-01-19T20:56:46.696Z,3.66
2023-01-19T20:59:14.884Z,3.68
2023-01-19T21:01:43.325Z,3.67
2023-01-19T21:04:12.096Z,3.62
2023-01-19T21:06:40.683Z,3.64
2023-01-19T21:09:10.091Z,3.60
2023-01-19T21:11:39.660Z,3.74
2023-01-19T21:14:08.839Z,3.80
2023-01-19T21:16:37.511Z,3.76
2023-01-19T21:19:05.703Z,3.77
2023-01-19T21:21:33.789Z,3.80
2023-01-19T21:24:03.104Z,3.75
2023-01-19T21:26:31.542Z,3.82
2023-01-19T21:29:01.655Z,3.73
2023-01-19T21:31:30.083Z,3.70
2023-01-19T21:33:58.462Z,3.63
2023-01-19T21:36:26.573Z,3.67
2023-01-19T21:39:00.645Z,3.71
2023-01-19T21:41:30.595Z,3.66
2023-01-19T21:44:00.698Z,3.74
2023-01-19T21:46:29.788Z,3.69
2023-01-19T21:49:05.756Z,3.83
2023-01-19T21:51:36.384Z,3.81
2023-01-19T21:54:06.606Z,3.87
2023-01-19T21:56:35.973Z,3.96
2023-01-19T21:59:04.483Z,4.00
2023-01-19T22:01:34.244Z,3.98
2023-01-19T22:04:02.353Z,3.91
2023-01-19T22:06:30.369Z,3.88
2023-01-19T22:08:58.650Z,3.87
2023-01-19T22:11:27.990Z,3.98
2023-01-19T22:13:56.208Z,3.99
2023-01-19T22:16:25.306Z,3.97
2023-01-19T22:19:02.251Z,3.87
2023-01-19T22:21:33.327Z,3.92
2023-01-19T22:24:02.673Z,3.94
2023-01-19T22:26:32.481Z,3.93
2023-01-19T22:29:01.929Z,3.92
2023-01-19T22:31:30.842Z,3.92
2023-01-19T22:33:58.961Z,3.67
2023-01-19T22:36:34.141Z,3.67
2023-01-19T22:39:05.543Z,3.62
2023-01-19T22:41:42.860Z,3.61
2023-01-19T22:44:21.189Z,3.67
2023-01-19T22:46:50.821Z,3.73
2023-01-19T22:49:18.837Z,3.67
2023-01-19T22:51:47.244Z,3.74
2023-01-19T22:54:15.273Z,3.75
2023-01-19T22:56:43.366Z,3.77
2023-01-19T22:59:11.467Z,3.64
2023-01-19T23:01:42.190Z,3.70
2023-01-19T23:04:15.856Z,3.62
2023-01-19T23:06:46.866Z,3.56
2023-01-19T23:09:15.327Z,3.55
2023-01-19T23:11:45.448Z,3.61
2023-01-19T23:14:16.996Z,3.61
2023-01-19T23:16:47.450Z,3.58
2023-01-19T23:19:17.521Z,3.59
2023-01-19T23:21:45.995Z,3.53
2023-01-19T23:24:13.875Z,3.50
2023-01-19T23:26:41.862Z,3.46
2023-01-19T23:29:15.193Z,3.35
2023-01-19T23:31:46.022Z,3.43
2023-01-19T23:34:14.898Z,3.36
2023-01-19T23:36:44.115Z,3.39
2023-01-19T23:39:18.311Z,3.45
2023-01-19T23:41:46.712Z,3.42
2023-01-19T23:44:14.940Z,3.40
2023-01-19T23:46:44.180Z,3.31
2023-01-19T23:49:13.132Z,3.41
2023-01-19T23:51:41.973Z,3.41
2023-01-19T23:54:10.366Z,3.33
2023-01-19T23:56:39.206Z,3.31
2023-01-19T23:59:13.013Z,3.27
